sensor_id;sensor_type;location;lat;lon;timestamp;P1;durP1;ratioP1;P2;durP2;ratioP2
5077;SDS011;2557;51.390;7.494;2023-06-14T00:00:58;9.00;;;8.10;;
5077;SDS011;2557;51.390;7.494;2023-06-14T00:03:24;10.40;;;8.83;;
5077;SDS011;2557;51.390;7.494;2023-06-14T00:05:50;10.43;;;9.33;;
5077;SDS011;2557;51.390;7.494;2023-06-14T00:08:16;17.13;;;10.73;;
5077;SDS011;2557;51.390;7.494;2023-06-14T00:10:44;16.70;;;9.60;;
5077;SDS011;2557;51.390;7.494;2023-06-14T00:13:10;10.90;;;9.20;;
5077;SDS011;2557;51.390;7.494;2023-06-14T00:15:36;13.33;;;10.23;;
5077;SDS011;2557;51.390;7.494;2023-06-14T00:18:03;11.30;;;9.70;;
5077;SDS011;2557;51.390;7.494;2023-06-14T00:20:30;12.33;;;9.80;;
5077;SDS011;2557;51.390;7.494;2023-06-14T00:22:57;11.03;;;10.00;;
5077;SDS011;2557;51.390;7.494;2023-06-14T00:25:24;12.73;;;9.90;;
5077;SDS011;2557;51.390;7.494;2023-06-14T00:27:50;11.60;;;10.40;;
5077;SDS011;2557;51.390;7.494;2023-06-14T00:30:16;10.80;;;9.80;;
5077;SDS011;2557;51.390;7.494;2023-06-14T00:32:43;10.93;;;9.73;;
5077;SDS011;2557;51.390;7.494;2023-06-14T00:35:09;11.30;;;9.93;;
5077;SDS011;2557;51.390;7.494;2023-06-14T00:37:35;11.00;;;9.93;;
5077;SDS011;2557;51.390;7.494;2023-06-14T00:40:01;12.80;;;11.20;;
5077;SDS011;2557;51.390;7.494;2023-06-14T00:42:29;10.63;;;9.40;;
5077;SDS011;2557;51.390;7.494;2023-06-14T00:44:55;11.27;;;10.13;;
5077;SDS011;2557;51.390;7.494;2023-06-14T00:47:21;16.13;;;10.77;;
5077;SDS011;2557;51.390;7.494;2023-06-14T00:49:47;12.37;;;10.27;;
5077;SDS011;2557;51.390;7.494;2023-06-14T00:52:14;14.73;;;10.37;;
5077;SDS011;2557;51.390;7.494;2023-06-14T00:54:40;12.40;;;9.67;;
5077;SDS011;2557;51.390;7.494;2023-06-14T00:57:07;11.73;;;9.53;;
5077;SDS011;2557;51.390;7.494;2023-06-14T00:59:33;12.50;;;11.27;;
5077;SDS011;2557;51.390;7.494;2023-06-14T01:02:00;12.57;;;11.30;;
5077;SDS011;2557;51.390;7.494;2023-06-14T01:04:26;11.57;;;10.20;;
5077;SDS011;2557;51.390;7.494;2023-06-14T01:07:02;15.47;;;10.60;;
5077;SDS011;2557;51.390;7.494;2023-06-14T01:09:53;11.90;;;10.37;;
5077;SDS011;2557;51.390;7.494;2023-06-14T01:12:33;12.67;;;11.37;;
5077;SDS011;2557;51.390;7.494;2023-06-14T01:15:01;17.47;;;10.10;;
5077;SDS011;2557;51.390;7.494;2023-06-14T01:17:27;18.10;;;10.70;;
5077;SDS011;2557;51.390;7.494;2023-06-14T01:19:57;15.90;;;10.83;;
5077;SDS011;2557;51.390;7.494;2023-06-14T01:22:25;12.37;;;9.50;;
5077;SDS011;2557;51.390;7.494;2023-06-14T01:24:51;14.10;;;9.80;;
5077;SDS011;2557;51.390;7.494;2023-06-14T01:27:20;10.67;;;9.63;;
5077;SDS011;2557;51.390;7.494;2023-06-14T01:29:48;11.10;;;8.57;;
5077;SDS011;2557;51.390;7.494;2023-06-14T01:32:16;10.30;;;9.30;;
5077;SDS011;2557;51.390;7.494;2023-06-14T01:34:43;15.13;;;9.90;;
5077;SDS011;2557;51.390;7.494;2023-06-14T01:37:09;11.67;;;10.47;;
5077;SDS011;2557;51.390;7.494;2023-06-14T01:39:36;11.10;;;10.00;;
5077;SDS011;2557;51.390;7.494;2023-06-14T01:42:02;11.03;;;9.70;;
5077;SDS011;2557;51.390;7.494;2023-06-14T01:44:29;13.73;;;9.00;;
5077;SDS011;2557;51.390;7.494;2023-06-14T01:46:56;11.73;;;9.90;;
5077;SDS011;2557;51.390;7.494;2023-06-14T01:49:22;10.53;;;9.53;;
5077;SDS011;2557;51.390;7.494;2023-06-14T01:51:48;12.43;;;11.07;;
5077;SDS011;2557;51.390;7.494;2023-06-14T01:54:14;11.50;;;10.40;;
5077;SDS011;2557;51.390;7.494;2023-06-14T01:56:40;10.00;;;9.10;;
5077;SDS011;2557;51.390;7.494;2023-06-14T01:59:06;14.53;;;10.50;;
5077;SDS011;2557;51.390;7.494;2023-06-14T02:01:33;11.70;;;10.03;;
5077;SDS011;2557;51.390;7.494;2023-06-14T02:03:59;12.13;;;9.30;;
5077;SDS011;2557;51.390;7.494;2023-06-14T02:06:26;10.33;;;9.30;;
5077;SDS011;2557;51.390;7.494;2023-06-14T02:08:53;12.87;;;10.17;;
5077;SDS011;2557;51.390;7.494;2023-06-14T02:11:19;10.67;;;9.77;;
5077;SDS011;2557;51.390;7.494;2023-06-14T02:13:44;12.37;;;11.10;;
5077;SDS011;2557;51.390;7.494;2023-06-14T02:16:11;12.90;;;10.23;;
5077;SDS011;2557;51.390;7.494;2023-06-14T02:18:37;14.70;;;10.93;;
5077;SDS011;2557;51.390;7.494;2023-06-14T02:21:03;13.63;;;10.03;;
5077;SDS011;2557;51.390;7.494;2023-06-14T02:23:29;11.30;;;10.00;;
5077;SDS011;2557;51.390;7.494;2023-06-14T02:25:57;11.53;;;10.30;;
5077;SDS011;2557;51.390;7.494;2023-06-14T02:28:22;10.77;;;9.50;;
5077;SDS011;2557;51.390;7.494;2023-06-14T02:30:49;12.57;;;10.30;;
5077;SDS011;2557;51.390;7.494;2023-06-14T02:33:15;10.97;;;9.87;;
5077;SDS011;2557;51.390;7.494;2023-06-14T02:35:42;12.50;;;10.43;;
5077;SDS011;2557;51.390;7.494;2023-06-14T02:38:08;11.23;;;10.13;;
5077;SDS011;2557;51.390;7.494;2023-06-14T02:40:34;13.47;;;10.17;;
5077;SDS011;2557;51.390;7.494;2023-06-14T02:43:00;11.67;;;10.47;;
5077;SDS011;2557;51.390;7.494;2023-06-14T02:45:26;12.17;;;11.07;;
5077;SDS011;2557;51.390;7.494;2023-06-14T02:47:52;12.17;;;9.27;;
5077;SDS011;2557;51.390;7.494;2023-06-14T02:50:20;12.70;;;10.77;;
5077;SDS011;2557;51.390;7.494;2023-06-14T02:52:46;9.80;;;8.90;;
5077;SDS011;2557;51.390;7.494;2023-06-14T02:55:12;14.13;;;9.93;;
5077;SDS011;2557;51.390;7.494;2023-06-14T02:57:38;12.33;;;10.10;;
5077;SDS011;2557;51.390;7.494;2023-06-14T03:00:04;11.87;;;10.23;;
5077;SDS011;2557;51.390;7.494;2023-06-14T03:02:34;15.67;;;9.70;;
5077;SDS011;2557;51.390;7.494;2023-06-14T03:05:00;13.30;;;9.97;;
5077;SDS011;2557;51.390;7.494;2023-06-14T03:07:27;11.33;;;9.40;;
5077;SDS011;2557;51.390;7.494;2023-06-14T03:09:54;10.73;;;9.70;;
5077;SDS011;2557;51.390;7.494;2023-06-14T03:12:20;10.57;;;9.57;;
5077;SDS011;2557;51.390;7.494;2023-06-14T03:14:46;11.20;;;9.90;;
5077;SDS011;2557;51.390;7.494;2023-06-14T03:17:12;13.77;;;9.57;;
5077;SDS011;2557;51.390;7.494;2023-06-14T03:19:38;11.93;;;10.10;;
5077;SDS011;2557;51.390;7.494;2023-06-14T03:22:06;9.97;;;9.07;;
5077;SDS011;2557;51.390;7.494;2023-06-14T03:24:32;10.40;;;9.30;;
5077;SDS011;2557;51.390;7.494;2023-06-14T03:27:01;10.10;;;9.03;;
5077;SDS011;2557;51.390;7.494;2023-06-14T03:29:27;12.93;;;9.80;;
5077;SDS011;2557;51.390;7.494;2023-06-14T03:31:57;10.00;;;8.67;;
5077;SDS011;2557;51.390;7.494;2023-06-14T03:34:23;11.10;;;9.27;;
5077;SDS011;2557;51.390;7.494;2023-06-14T03:36:49;10.33;;;9.27;;
5077;SDS011;2557;51.390;7.494;2023-06-14T03:39:15;10.80;;;9.70;;
5077;SDS011;2557;51.390;7.494;2023-06-14T03:41:41;9.50;;;8.50;;
5077;SDS011;2557;51.390;7.494;2023-06-14T03:44:07;9.50;;;8.70;;
5077;SDS011;2557;51.390;7.494;2023-06-14T03:46:33;13.93;;;10.33;;
5077;SDS011;2557;51.390;7.494;2023-06-14T03:48:59;12.80;;;8.83;;
5077;SDS011;2557;51.390;7.494;2023-06-14T03:51:25;10.17;;;9.17;;
5077;SDS011;2557;51.390;7.494;2023-06-14T03:53:51;12.80;;;9.27;;
5077;SDS011;2557;51.390;7.494;2023-06-14T03:56:17;11.67;;;9.33;;
5077;SDS011;2557;51.390;7.494;2023-06-14T03:58:43;10.37;;;9.23;;
5077;SDS011;2557;51.390;7.494;2023-06-14T04:01:09;11.70;;;10.50;;
5077;SDS011;2557;51.390;7.494;2023-06-14T04:03:37;15.07;;;9.97;;
5077;SDS011;2557;51.390;7.494;2023-06-14T04:06:03;10.60;;;8.97;;
5077;SDS011;2557;51.390;7.494;2023-06-14T04:08:30;9.40;;;8.47;;
5077;SDS011;2557;51.390;7.494;2023-06-14T04:10:56;12.20;;;10.30;;
5077;SDS011;2557;51.390;7.494;2023-06-14T04:13:22;15.17;;;11.00;;
5077;SDS011;2557;51.390;7.494;2023-06-14T04:15:48;15.33;;;10.03;;
5077;SDS011;2557;51.390;7.494;2023-06-14T04:18:14;10.23;;;9.23;;
5077;SDS011;2557;51.390;7.494;2023-06-14T04:20:40;12.77;;;9.97;;
5077;SDS011;2557;51.390;7.494;2023-06-14T04:25:39;13.90;;;10.17;;
5077;SDS011;2557;51.390;7.494;2023-06-14T04:28:05;14.07;;;9.60;;
5077;SDS011;2557;51.390;7.494;2023-06-14T04:30:34;13.67;;;10.33;;
5077;SDS011;2557;51.390;7.494;2023-06-14T04:33:01;15.93;;;11.17;;
5077;SDS011;2557;51.390;7.494;2023-06-14T04:35:30;14.60;;;10.30;;
5077;SDS011;2557;51.390;7.494;2023-06-14T04:37:57;10.97;;;9.87;;
5077;SDS011;2557;51.390;7.494;2023-06-14T04:40:24;14.07;;;10.17;;
5077;SDS011;2557;51.390;7.494;2023-06-14T04:42:50;13.43;;;11.07;;
5077;SDS011;2557;51.390;7.494;2023-06-14T04:45:16;11.37;;;10.27;;
5077;SDS011;2557;51.390;7.494;2023-06-14T04:47:42;12.67;;;8.83;;
5077;SDS011;2557;51.390;7.494;2023-06-14T04:50:09;11.80;;;8.57;;
5077;SDS011;2557;51.390;7.494;2023-06-14T04:52:38;21.03;;;8.33;;
5077;SDS011;2557;51.390;7.494;2023-06-14T04:55:04;10.43;;;7.80;;
5077;SDS011;2557;51.390;7.494;2023-06-14T04:57:30;13.83;;;9.27;;
5077;SDS011;2557;51.390;7.494;2023-06-14T04:59:57;9.10;;;8.20;;
5077;SDS011;2557;51.390;7.494;2023-06-14T05:02:25;12.10;;;10.40;;
5077;SDS011;2557;51.390;7.494;2023-06-14T05:04:52;13.33;;;8.30;;
5077;SDS011;2557;51.390;7.494;2023-06-14T05:07:19;11.20;;;8.33;;
5077;SDS011;2557;51.390;7.494;2023-06-14T05:09:45;13.80;;;8.90;;
5077;SDS011;2557;51.390;7.494;2023-06-14T05:12:11;8.80;;;6.90;;
5077;SDS011;2557;51.390;7.494;2023-06-14T05:14:37;8.60;;;6.30;;
5077;SDS011;2557;51.390;7.494;2023-06-14T05:17:04;9.80;;;7.90;;
5077;SDS011;2557;51.390;7.494;2023-06-14T05:19:30;9.23;;;6.97;;
5077;SDS011;2557;51.390;7.494;2023-06-14T05:21:56;9.10;;;7.17;;
5077;SDS011;2557;51.390;7.494;2023-06-14T05:24:22;9.67;;;6.30;;
5077;SDS011;2557;51.390;7.494;2023-06-14T05:26:48;8.80;;;7.50;;
5077;SDS011;2557;51.390;7.494;2023-06-14T05:29:14;9.97;;;6.00;;
5077;SDS011;2557;51.390;7.494;2023-06-14T05:31:40;6.73;;;6.13;;
5077;SDS011;2557;51.390;7.494;2023-06-14T05:34:06;9.10;;;6.60;;
5077;SDS011;2557;51.390;7.494;2023-06-14T05:36:32;7.57;;;5.70;;
5077;SDS011;2557;51.390;7.494;2023-06-14T05:38:58;10.80;;;6.70;;
5077;SDS011;2557;51.390;7.494;2023-06-14T05:41:27;8.70;;;7.20;;
5077;SDS011;2557;51.390;7.494;2023-06-14T05:43:54;7.33;;;5.83;;
5077;SDS011;2557;51.390;7.494;2023-06-14T05:46:20;11.27;;;6.63;;
5077;SDS011;2557;51.390;7.494;2023-06-14T05:48:49;7.13;;;6.43;;
5077;SDS011;2557;51.390;7.494;2023-06-14T05:51:15;8.30;;;6.60;;
5077;SDS011;2557;51.390;7.494;2023-06-14T05:53:43;7.23;;;6.30;;
5077;SDS011;2557;51.390;7.494;2023-06-14T05:56:09;7.53;;;5.80;;
5077;SDS011;2557;51.390;7.494;2023-06-14T05:58:35;8.23;;;6.23;;
5077;SDS011;2557;51.390;7.494;2023-06-14T06:01:01;8.50;;;6.20;;
5077;SDS011;2557;51.390;7.494;2023-06-14T06:03:27;8.50;;;6.03;;
5077;SDS011;2557;51.390;7.494;2023-06-14T06:05:54;6.97;;;6.23;;
5077;SDS011;2557;51.390;7.494;2023-06-14T06:08:20;6.37;;;5.77;;
5077;SDS011;2557;51.390;7.494;2023-06-14T06:10:46;9.60;;;6.00;;
5077;SDS011;2557;51.390;7.494;2023-06-14T06:13:12;7.20;;;5.80;;
5077;SDS011;2557;51.390;7.494;2023-06-14T06:15:38;8.10;;;6.70;;
5077;SDS011;2557;51.390;7.494;2023-06-14T06:18:04;6.37;;;5.63;;
5077;SDS011;2557;51.390;7.494;2023-06-14T06:20:31;6.73;;;5.63;;
5077;SDS011;2557;51.390;7.494;2023-06-14T06:23:00;7.67;;;5.70;;
5077;SDS011;2557;51.390;7.494;2023-06-14T06:25:26;7.67;;;5.93;;
5077;SDS011;2557;51.390;7.494;2023-06-14T06:27:52;8.37;;;5.73;;
5077;SDS011;2557;51.390;7.494;2023-06-14T06:30:19;11.83;;;5.60;;
5077;SDS011;2557;51.390;7.494;2023-06-14T06:32:45;5.50;;;5.03;;
5077;SDS011;2557;51.390;7.494;2023-06-14T06:35:12;6.47;;;5.87;;
5077;SDS011;2557;51.390;7.494;2023-06-14T06:37:38;6.60;;;5.23;;
5077;SDS011;2557;51.390;7.494;2023-06-14T06:40:04;4.73;;;4.33;;
5077;SDS011;2557;51.390;7.494;2023-06-14T06:42:31;5.77;;;4.80;;
5077;SDS011;2557;51.390;7.494;2023-06-14T06:44:57;8.23;;;4.53;;
5077;SDS011;2557;51.390;7.494;2023-06-14T06:47:23;4.73;;;4.33;;
5077;SDS011;2557;51.390;7.494;2023-06-14T06:49:50;5.73;;;5.13;;
5077;SDS011;2557;51.390;7.494;2023-06-14T06:52:16;9.33;;;5.07;;
5077;SDS011;2557;51.390;7.494;2023-06-14T06:54:42;5.63;;;5.10;;
5077;SDS011;2557;51.390;7.494;2023-06-14T06:57:08;4.90;;;4.17;;
5077;SDS011;2557;51.390;7.494;2023-06-14T06:59:35;5.60;;;4.10;;
5077;SDS011;2557;51.390;7.494;2023-06-14T07:02:01;4.73;;;4.23;;
5077;SDS011;2557;51.390;7.494;2023-06-14T07:04:27;9.00;;;4.50;;
5077;SDS011;2557;51.390;7.494;2023-06-14T07:06:53;3.70;;;3.40;;
5077;SDS011;2557;51.390;7.494;2023-06-14T07:09:20;3.60;;;3.30;;
5077;SDS011;2557;51.390;7.494;2023-06-14T07:11:46;3.90;;;3.70;;
5077;SDS011;2557;51.390;7.494;2023-06-14T07:14:13;4.27;;;3.87;;
5077;SDS011;2557;51.390;7.494;2023-06-14T07:16:39;5.83;;;3.87;;
5077;SDS011;2557;51.390;7.494;2023-06-14T07:19:06;5.93;;;3.80;;
5077;SDS011;2557;51.390;7.494;2023-06-14T07:21:32;5.17;;;3.87;;
5077;SDS011;2557;51.390;7.494;2023-06-14T07:23:58;4.03;;;3.73;;
5077;SDS011;2557;51.390;7.494;2023-06-14T07:26:24;4.57;;;3.20;;
5077;SDS011;2557;51.390;7.494;2023-06-14T07:28:50;6.50;;;3.23;;
5077;SDS011;2557;51.390;7.494;2023-06-14T07:31:16;5.03;;;3.50;;
5077;SDS011;2557;51.390;7.494;2023-06-14T07:33:44;3.20;;;2.90;;
5077;SDS011;2557;51.390;7.494;2023-06-14T07:36:10;5.97;;;3.70;;
5077;SDS011;2557;51.390;7.494;2023-06-14T07:38:36;3.47;;;3.23;;
5077;SDS011;2557;51.390;7.494;2023-06-14T07:41:02;3.53;;;3.20;;
5077;SDS011;2557;51.390;7.494;2023-06-14T07:43:28;4.43;;;3.73;;
5077;SDS011;2557;51.390;7.494;2023-06-14T07:45:54;3.73;;;3.20;;
5077;SDS011;2557;51.390;7.494;2023-06-14T07:48:22;7.07;;;2.83;;
5077;SDS011;2557;51.390;7.494;2023-06-14T07:50:48;6.90;;;3.60;;
5077;SDS011;2557;51.390;7.494;2023-06-14T07:53:14;4.50;;;4.00;;
5077;SDS011;2557;51.390;7.494;2023-06-14T07:55:40;9.07;;;3.50;;
5077;SDS011;2557;51.390;7.494;2023-06-14T07:58:07;5.30;;;3.83;;
5077;SDS011;2557;51.390;7.494;2023-06-14T08:00:33;3.80;;;3.50;;
5077;SDS011;2557;51.390;7.494;2023-06-14T08:02:59;5.47;;;3.07;;
5077;SDS011;2557;51.390;7.494;2023-06-14T08:05:25;4.27;;;3.30;;
5077;SDS011;2557;51.390;7.494;2023-06-14T08:07:52;3.53;;;2.93;;
5077;SDS011;2557;51.390;7.494;2023-06-14T08:10:18;2.77;;;2.57;;
5077;SDS011;2557;51.390;7.494;2023-06-14T08:12:44;3.43;;;3.13;;
5077;SDS011;2557;51.390;7.494;2023-06-14T08:15:10;5.20;;;2.70;;
5077;SDS011;2557;51.390;7.494;2023-06-14T08:17:37;4.63;;;3.93;;
5077;SDS011;2557;51.390;7.494;2023-06-14T08:20:03;5.57;;;3.43;;
5077;SDS011;2557;51.390;7.494;2023-06-14T08:22:30;3.13;;;2.93;;
5077;SDS011;2557;51.390;7.494;2023-06-14T08:24:59;3.80;;;2.80;;
5077;SDS011;2557;51.390;7.494;2023-06-14T08:27:26;4.77;;;2.93;;
5077;SDS011;2557;51.390;7.494;2023-06-14T08:29:52;3.50;;;3.20;;
5077;SDS011;2557;51.390;7.494;2023-06-14T08:32:18;4.30;;;2.93;;
5077;SDS011;2557;51.390;7.494;2023-06-14T08:34:43;4.37;;;3.33;;
5077;SDS011;2557;51.390;7.494;2023-06-14T08:37:10;5.30;;;3.53;;
5077;SDS011;2557;51.390;7.494;2023-06-14T08:39:36;3.77;;;2.90;;
5077;SDS011;2557;51.390;7.494;2023-06-14T08:42:02;6.77;;;3.00;;
5077;SDS011;2557;51.390;7.494;2023-06-14T08:44:29;7.37;;;2.80;;
5077;SDS011;2557;51.390;7.494;2023-06-14T08:46:55;3.13;;;2.80;;
5077;SDS011;2557;51.390;7.494;2023-06-14T08:49:24;3.20;;;2.80;;
5077;SDS011;2557;51.390;7.494;2023-06-14T08:51:53;7.30;;;2.80;;
5077;SDS011;2557;51.390;7.494;2023-06-14T08:54:22;2.63;;;2.10;;
5077;SDS011;2557;51.390;7.494;2023-06-14T08:56:49;3.00;;;2.80;;
5077;SDS011;2557;51.390;7.494;2023-06-14T08:59:17;4.90;;;3.20;;
5077;SDS011;2557;51.390;7.494;2023-06-14T09:01:43;3.37;;;3.00;;
5077;SDS011;2557;51.390;7.494;2023-06-14T09:04:10;3.97;;;3.20;;
5077;SDS011;2557;51.390;7.494;2023-06-14T09:06:36;4.70;;;2.70;;
5077;SDS011;2557;51.390;7.494;2023-06-14T09:09:02;2.90;;;2.70;;
5077;SDS011;2557;51.390;7.494;2023-06-14T09:11:29;3.57;;;2.70;;
5077;SDS011;2557;51.390;7.494;2023-06-14T09:13:56;18.97;;;3.93;;
5077;SDS011;2557;51.390;7.494;2023-06-14T09:16:22;2.87;;;2.57;;
5077;SDS011;2557;51.390;7.494;2023-06-14T09:18:48;4.30;;;3.03;;
5077;SDS011;2557;51.390;7.494;2023-06-14T09:21:14;3.10;;;2.90;;
5077;SDS011;2557;51.390;7.494;2023-06-14T09:23:41;3.13;;;2.87;;
5077;SDS011;2557;51.390;7.494;2023-06-14T09:26:08;2.40;;;2.30;;
5077;SDS011;2557;51.390;7.494;2023-06-14T09:28:35;5.00;;;2.30;;
5077;SDS011;2557;51.390;7.494;2023-06-14T09:31:01;2.80;;;2.60;;
5077;SDS011;2557;51.390;7.494;2023-06-14T09:33:27;6.67;;;2.43;;
5077;SDS011;2557;51.390;7.494;2023-06-14T09:35:56;3.33;;;2.43;;
5077;SDS011;2557;51.390;7.494;2023-06-14T09:38:22;4.97;;;2.77;;
5077;SDS011;2557;51.390;7.494;2023-06-14T09:40:49;5.30;;;2.10;;
5077;SDS011;2557;51.390;7.494;2023-06-14T09:43:15;4.77;;;2.60;;
5077;SDS011;2557;51.390;7.494;2023-06-14T09:45:41;2.40;;;2.20;;
5077;SDS011;2557;51.390;7.494;2023-06-14T09:48:11;2.37;;;2.27;;
5077;SDS011;2557;51.390;7.494;2023-06-14T09:50:42;2.87;;;2.67;;
5077;SDS011;2557;51.390;7.494;2023-06-14T09:53:10;4.30;;;2.10;;
5077;SDS011;2557;51.390;7.494;2023-06-14T09:55:37;2.80;;;2.40;;
5077;SDS011;2557;51.390;7.494;2023-06-14T09:58:04;2.87;;;2.00;;
5077;SDS011;2557;51.390;7.494;2023-06-14T10:00:31;2.30;;;2.10;;
5077;SDS011;2557;51.390;7.494;2023-06-14T10:03:00;3.83;;;1.90;;
5077;SDS011;2557;51.390;7.494;2023-06-14T10:05:26;5.00;;;2.10;;
5077;SDS011;2557;51.390;7.494;2023-06-14T10:10:19;2.17;;;1.97;;
5077;SDS011;2557;51.390;7.494;2023-06-14T10:12:46;3.07;;;2.77;;
5077;SDS011;2557;51.390;7.494;2023-06-14T10:15:16;2.30;;;2.20;;
5077;SDS011;2557;51.390;7.494;2023-06-14T10:17:47;2.33;;;2.23;;
5077;SDS011;2557;51.390;7.494;2023-06-14T10:22:49;2.70;;;2.17;;
5077;SDS011;2557;51.390;7.494;2023-06-14T10:25:30;4.03;;;2.00;;
5077;SDS011;2557;51.390;7.494;2023-06-14T10:28:03;3.30;;;2.07;;
5077;SDS011;2557;51.390;7.494;2023-06-14T10:30:30;2.50;;;2.30;;
5077;SDS011;2557;51.390;7.494;2023-06-14T10:33:03;7.53;;;3.20;;
5077;SDS011;2557;51.390;7.494;2023-06-14T10:35:30;3.00;;;2.30;;
5077;SDS011;2557;51.390;7.494;2023-06-14T10:38:05;2.83;;;2.43;;
5077;SDS011;2557;51.390;7.494;2023-06-14T10:40:31;5.60;;;2.13;;
5077;SDS011;2557;51.390;7.494;2023-06-14T10:42:58;3.23;;;2.13;;
5077;SDS011;2557;51.390;7.494;2023-06-14T10:45:24;2.60;;;2.37;;
5077;SDS011;2557;51.390;7.494;2023-06-14T10:47:50;1.83;;;1.73;;
5077;SDS011;2557;51.390;7.494;2023-06-14T10:50:22;2.67;;;2.20;;
5077;SDS011;2557;51.390;7.494;2023-06-14T10:52:53;4.40;;;2.10;;
5077;SDS011;2557;51.390;7.494;2023-06-14T10:55:19;2.07;;;1.90;;
5077;SDS011;2557;51.390;7.494;2023-06-14T10:57:54;3.20;;;2.07;;
5077;SDS011;2557;51.390;7.494;2023-06-14T11:00:27;4.50;;;2.33;;
5077;SDS011;2557;51.390;7.494;2023-06-14T11:05:26;2.63;;;2.43;;
5077;SDS011;2557;51.390;7.494;2023-06-14T11:07:58;2.63;;;2.30;;
5077;SDS011;2557;51.390;7.494;2023-06-14T11:10:48;2.70;;;2.50;;
5077;SDS011;2557;51.390;7.494;2023-06-14T11:13:16;2.47;;;2.27;;
5077;SDS011;2557;51.390;7.494;2023-06-14T11:15:46;2.77;;;2.07;;
5077;SDS011;2557;51.390;7.494;2023-06-14T11:18:12;3.70;;;2.50;;
5077;SDS011;2557;51.390;7.494;2023-06-14T11:20:39;4.43;;;2.53;;
5077;SDS011;2557;51.390;7.494;2023-06-14T11:23:05;7.67;;;2.80;;
5077;SDS011;2557;51.390;7.494;2023-06-14T11:25:31;3.43;;;3.13;;
5077;SDS011;2557;51.390;7.494;2023-06-14T11:27:58;2.90;;;2.50;;
5077;SDS011;2557;51.390;7.494;2023-06-14T11:30:24;5.90;;;2.80;;
5077;SDS011;2557;51.390;7.494;2023-06-14T11:32:51;4.70;;;2.57;;
5077;SDS011;2557;51.390;7.494;2023-06-14T11:35:18;4.27;;;2.40;;
5077;SDS011;2557;51.390;7.494;2023-06-14T11:37:44;4.10;;;2.87;;
5077;SDS011;2557;51.390;7.494;2023-06-14T11:40:11;3.70;;;2.83;;
5077;SDS011;2557;51.390;7.494;2023-06-14T11:42:38;4.17;;;2.40;;
5077;SDS011;2557;51.390;7.494;2023-06-14T11:45:07;3.20;;;2.37;;
5077;SDS011;2557;51.390;7.494;2023-06-14T11:47:36;3.70;;;2.53;;
5077;SDS011;2557;51.390;7.494;2023-06-14T11:50:03;3.60;;;3.30;;
5077;SDS011;2557;51.390;7.494;2023-06-14T11:52:29;4.80;;;2.57;;
5077;SDS011;2557;51.390;7.494;2023-06-14T11:54:56;3.37;;;3.07;;
5077;SDS011;2557;51.390;7.494;2023-06-14T11:57:23;6.47;;;2.60;;
5077;SDS011;2557;51.390;7.494;2023-06-14T11:59:49;2.80;;;2.40;;
5077;SDS011;2557;51.390;7.494;2023-06-14T12:02:16;4.90;;;3.23;;
5077;SDS011;2557;51.390;7.494;2023-06-14T12:04:42;3.30;;;2.63;;
5077;SDS011;2557;51.390;7.494;2023-06-14T12:07:11;7.23;;;2.30;;
5077;SDS011;2557;51.390;7.494;2023-06-14T12:09:42;2.63;;;2.43;;
5077;SDS011;2557;51.390;7.494;2023-06-14T12:12:34;2.70;;;2.47;;
5077;SDS011;2557;51.390;7.494;2023-06-14T12:15:02;2.70;;;2.50;;
5077;SDS011;2557;51.390;7.494;2023-06-14T12:17:31;4.70;;;3.30;;
5077;SDS011;2557;51.390;7.494;2023-06-14T12:19:57;5.43;;;2.47;;
5077;SDS011;2557;51.390;7.494;2023-06-14T12:22:23;3.87;;;3.07;;
5077;SDS011;2557;51.390;7.494;2023-06-14T12:24:49;2.40;;;2.20;;
5077;SDS011;2557;51.390;7.494;2023-06-14T12:27:15;3.80;;;2.10;;
5077;SDS011;2557;51.390;7.494;2023-06-14T12:29:43;3.10;;;2.43;;
5077;SDS011;2557;51.390;7.494;2023-06-14T12:32:10;2.80;;;2.60;;
5077;SDS011;2557;51.390;7.494;2023-06-14T12:34:36;6.90;;;2.63;;
5077;SDS011;2557;51.390;7.494;2023-06-14T12:37:02;2.53;;;2.33;;
5077;SDS011;2557;51.390;7.494;2023-06-14T12:39:29;3.30;;;2.50;;
5077;SDS011;2557;51.390;7.494;2023-06-14T12:41:56;5.47;;;2.67;;
5077;SDS011;2557;51.390;7.494;2023-06-14T12:44:22;4.00;;;2.63;;
5077;SDS011;2557;51.390;7.494;2023-06-14T12:46:48;4.80;;;3.23;;
5077;SDS011;2557;51.390;7.494;2023-06-14T12:49:16;2.67;;;2.47;;
5077;SDS011;2557;51.390;7.494;2023-06-14T12:51:42;3.50;;;2.53;;
5077;SDS011;2557;51.390;7.494;2023-06-14T12:54:09;3.70;;;2.53;;
5077;SDS011;2557;51.390;7.494;2023-06-14T12:56:35;7.47;;;3.17;;
5077;SDS011;2557;51.390;7.494;2023-06-14T12:59:01;3.03;;;2.73;;
5077;SDS011;2557;51.390;7.494;2023-06-14T13:01:27;3.10;;;2.80;;
5077;SDS011;2557;51.390;7.494;2023-06-14T13:03:53;4.50;;;2.70;;
5077;SDS011;2557;51.390;7.494;2023-06-14T13:06:22;5.53;;;2.60;;
5077;SDS011;2557;51.390;7.494;2023-06-14T13:08:49;3.30;;;3.10;;
5077;SDS011;2557;51.390;7.494;2023-06-14T13:11:15;4.50;;;2.50;;
5077;SDS011;2557;51.390;7.494;2023-06-14T13:13:41;3.53;;;2.50;;
5077;SDS011;2557;51.390;7.494;2023-06-14T13:16:07;3.17;;;2.97;;
5077;SDS011;2557;51.390;7.494;2023-06-14T13:18:33;3.10;;;2.50;;
5077;SDS011;2557;51.390;7.494;2023-06-14T13:20:59;6.20;;;2.90;;
5077;SDS011;2557;51.390;7.494;2023-06-14T13:23:26;2.83;;;2.60;;
5077;SDS011;2557;51.390;7.494;2023-06-14T13:25:52;5.83;;;3.33;;
5077;SDS011;2557;51.390;7.494;2023-06-14T13:28:18;2.77;;;2.57;;
5077;SDS011;2557;51.390;7.494;2023-06-14T13:30:45;4.30;;;2.87;;
5077;SDS011;2557;51.390;7.494;2023-06-14T13:33:12;3.23;;;2.97;;
5077;SDS011;2557;51.390;7.494;2023-06-14T13:35:38;3.00;;;2.40;;
5077;SDS011;2557;51.390;7.494;2023-06-14T13:38:04;4.00;;;2.77;;
5077;SDS011;2557;51.390;7.494;2023-06-14T13:40:30;3.63;;;2.70;;
5077;SDS011;2557;51.390;7.494;2023-06-14T13:42:56;4.00;;;3.03;;
5077;SDS011;2557;51.390;7.494;2023-06-14T13:45:22;2.77;;;2.57;;
5077;SDS011;2557;51.390;7.494;2023-06-14T13:47:48;5.30;;;3.00;;
5077;SDS011;2557;51.390;7.494;2023-06-14T13:50:14;5.03;;;2.93;;
5077;SDS011;2557;51.390;7.494;2023-06-14T13:52:41;4.50;;;2.83;;
5077;SDS011;2557;51.390;7.494;2023-06-14T13:55:07;4.63;;;3.10;;
5077;SDS011;2557;51.390;7.494;2023-06-14T13:57:34;2.93;;;2.73;;
5077;SDS011;2557;51.390;7.494;2023-06-14T14:00:00;4.47;;;3.37;;
5077;SDS011;2557;51.390;7.494;2023-06-14T14:02:27;8.00;;;3.00;;
5077;SDS011;2557;51.390;7.494;2023-06-14T14:04:54;2.97;;;2.63;;
5077;SDS011;2557;51.390;7.494;2023-06-14T14:07:21;3.70;;;2.73;;
5077;SDS011;2557;51.390;7.494;2023-06-14T14:09:47;3.67;;;2.93;;
5077;SDS011;2557;51.390;7.494;2023-06-14T14:17:45;3.73;;;3.43;;
5077;SDS011;2557;51.390;7.494;2023-06-14T14:20:12;5.13;;;3.23;;
5077;SDS011;2557;51.390;7.494;2023-06-14T14:22:40;3.90;;;3.37;;
5077;SDS011;2557;51.390;7.494;2023-06-14T14:25:06;3.83;;;3.27;;
5077;SDS011;2557;51.390;7.494;2023-06-14T14:27:33;3.07;;;2.87;;
5077;SDS011;2557;51.390;7.494;2023-06-14T14:29:59;6.97;;;3.30;;
5077;SDS011;2557;51.390;7.494;2023-06-14T14:32:25;3.30;;;3.00;;
5077;SDS011;2557;51.390;7.494;2023-06-14T14:34:51;4.37;;;2.97;;
5077;SDS011;2557;51.390;7.494;2023-06-14T14:37:17;3.50;;;3.30;;
5077;SDS011;2557;51.390;7.494;2023-06-14T14:39:44;3.80;;;3.47;;
5077;SDS011;2557;51.390;7.494;2023-06-14T14:42:10;3.53;;;3.30;;
5077;SDS011;2557;51.390;7.494;2023-06-14T14:44:37;3.83;;;3.30;;
5077;SDS011;2557;51.390;7.494;2023-06-14T14:47:04;4.57;;;3.47;;
5077;SDS011;2557;51.390;7.494;2023-06-14T14:49:30;3.70;;;3.40;;
5077;SDS011;2557;51.390;7.494;2023-06-14T14:51:56;3.00;;;2.80;;
5077;SDS011;2557;51.390;7.494;2023-06-14T14:54:22;3.83;;;3.50;;
5077;SDS011;2557;51.390;7.494;2023-06-14T14:56:50;5.83;;;3.70;;
5077;SDS011;2557;51.390;7.494;2023-06-14T14:59:16;3.40;;;3.10;;
5077;SDS011;2557;51.390;7.494;2023-06-14T15:01:43;4.40;;;3.20;;
5077;SDS011;2557;51.390;7.494;2023-06-14T15:04:10;3.53;;;3.30;;
5077;SDS011;2557;51.390;7.494;2023-06-14T15:06:37;3.33;;;3.10;;
5077;SDS011;2557;51.390;7.494;2023-06-14T15:09:04;2.93;;;2.73;;
5077;SDS011;2557;51.390;7.494;2023-06-14T15:11:30;4.37;;;3.00;;
5077;SDS011;2557;51.390;7.494;2023-06-14T15:13:56;3.77;;;3.30;;
5077;SDS011;2557;51.390;7.494;2023-06-14T15:16:22;3.47;;;3.17;;
5077;SDS011;2557;51.390;7.494;2023-06-14T15:18:49;4.10;;;3.67;;
5077;SDS011;2557;51.390;7.494;2023-06-14T15:21:15;4.40;;;4.00;;